sensor_id;sensor_type;location;lat;lon;timestamp;pressure;altitude;pressure_sealevel;temperature;humidity
10638;BME280;47007;49.252;8.904;2023-02-08T00:00:37;101925.56;;;-3.03;100.00
10638;BME280;47007;49.252;8.904;2023-02-08T00:01:22;101921.38;;;-3.07;100.00
10638;BME280;47007;49.252;8.904;2023-02-08T00:02:04;101877.97;;;-3.30;100.00
10638;BME280;47007;49.252;8.904;2023-02-08T00:02:46;101894.06;;;-3.19;100.00
10638;BME280;47007;49.252;8.904;2023-02-08T00:03:28;101896.75;;;-3.22;100.00
10638;BME280;47007;49.252;8.904;2023-02-08T00:04:10;101882.13;;;-3.24;100.00
10638;BME280;47007;49.252;8.904;2023-02-08T00:04:51;101899.22;;;-3.19;100.00
10638;BME280;47007;49.252;8.904;2023-02-08T00:05:33;101916.13;;;-3.06;100.00
10638;BME280;47007;49.252;8.904;2023-02-08T00:06:16;101914.44;;;-3.07;100.00
10638;BME280;47007;49.252;8.904;2023-02-08T00:06:58;101885.66;;;-3.27;100.00
10638;BME280;47007;49.252;8.904;2023-02-08T00:07:39;101912.72;;;-3.08;100.00
10638;BME280;47007;49.252;8.904;2023-02-08T00:08:21;101911.03;;;-3.09;100.00
10638;BME280;47007;49.252;8.904;2023-02-08T00:09:03;101912.00;;;-3.11;100.00
10638;BME280;47007;49.252;8.904;2023-02-08T00:09:44;101911.19;;;-3.13;100.00
10638;BME280;47007;49.252;8.904;2023-02-08T00:10:26;101915.56;;;-3.15;100.00
10638;BME280;47007;49.252;8.904;2023-02-08T00:11:08;101919.06;;;-3.16;100.00
10638;BME280;47007;49.252;8.904;2023-02-08T00:11:51;101892.66;;;-3.31;100.00
10638;BME280;47007;49.252;8.904;2023-02-08T00:12:33;101905.47;;;-3.24;100.00
10638;BME280;47007;49.252;8.904;2023-02-08T00:13:15;101906.28;;;-3.22;100.00
10638;BME280;47007;49.252;8.904;2023-02-08T00:13:57;101914.94;;;-3.23;100.00
10638;BME280;47007;49.252;8.904;2023-02-08T00:14:39;101900.47;;;-3.32;100.00
10638;BME280;47007;49.252;8.904;2023-02-08T00:15:21;101881.06;;;-3.47;100.00
10638;BME280;47007;49.252;8.904;2023-02-08T00:16:03;101887.75;;;-3.40;100.00
10638;BME280;47007;49.252;8.904;2023-02-08T00:16:45;101910.84;;;-3.32;100.00
10638;BME280;47007;49.252;8.904;2023-02-08T00:17:27;101911.81;;;-3.35;100.00
10638;BME280;47007;49.252;8.904;2023-02-08T00:18:09;101890.56;;;-3.47;100.00
10638;BME280;47007;49.252;8.904;2023-02-08T00:18:51;101898.28;;;-3.46;100.00
10638;BME280;47007;49.252;8.904;2023-02-08T00:19:32;101900.88;;;-3.46;100.00
10638;BME280;47007;49.252;8.904;2023-02-08T00:20:14;101894.88;;;-3.46;100.00
10638;BME280;47007;49.252;8.904;2023-02-08T00:20:56;101910.91;;;-3.34;100.00
10638;BME280;47007;49.252;8.904;2023-02-08T00:21:38;101905.63;;;-3.31;100.00
10638;BME280;47007;49.252;8.904;2023-02-08T00:22:20;101862.25;;;-3.55;100.00
10638;BME280;47007;49.252;8.904;2023-02-08T00:23:01;101904.66;;;-3.27;100.00
10638;BME280;47007;49.252;8.904;2023-02-08T00:23:43;101903.75;;;-3.26;100.00
10638;BME280;47007;49.252;8.904;2023-02-08T00:24:25;101878.34;;;-3.44;100.00
10638;BME280;47007;49.252;8.904;2023-02-08T00:25:07;101904.47;;;-3.20;100.00
10638;BME280;47007;49.252;8.904;2023-02-08T00:25:49;101908.75;;;-3.19;100.00
10638;BME280;47007;49.252;8.904;2023-02-08T00:26:31;101878.13;;;-3.35;100.00
10638;BME280;47007;49.252;8.904;2023-02-08T00:27:13;101888.31;;;-3.30;100.00
10638;BME280;47007;49.252;8.904;2023-02-08T00:27:54;101904.25;;;-3.13;100.00
10638;BME280;47007;49.252;8.904;2023-02-08T00:28:36;101898.31;;;-3.16;100.00
10638;BME280;47007;49.252;8.904;2023-02-08T00:29:18;101910.25;;;-3.11;100.00
10638;BME280;47007;49.252;8.904;2023-02-08T00:30:00;101909.41;;;-3.11;100.00
10638;BME280;47007;49.252;8.904;2023-02-08T00:30:44;101889.03;;;-3.23;100.00
10638;BME280;47007;49.252;8.904;2023-02-08T00:31:28;101880.56;;;-3.30;100.00
10638;BME280;47007;49.252;8.904;2023-02-08T00:32:10;101871.25;;;-3.37;100.00
10638;BME280;47007;49.252;8.904;2023-02-08T00:32:52;101888.31;;;-3.30;100.00
10638;BME280;47007;49.252;8.904;2023-02-08T00:33:33;101875.41;;;-3.32;100.00
10638;BME280;47007;49.252;8.904;2023-02-08T00:34:15;101877.25;;;-3.35;100.00
10638;BME280;47007;49.252;8.904;2023-02-08T00:34:57;101905.28;;;-3.18;100.00
10638;BME280;47007;49.252;8.904;2023-02-08T00:35:39;101894.09;;;-3.20;100.00
10638;BME280;47007;49.252;8.904;2023-02-08T00:36:22;101875.38;;;-3.30;100.00
10638;BME280;47007;49.252;8.904;2023-02-08T00:37:05;101907.66;;;-3.11;100.00
10638;BME280;47007;49.252;8.904;2023-02-08T00:37:46;101915.41;;;-3.09;100.00
10638;BME280;47007;49.252;8.904;2023-02-08T00:38:28;101898.22;;;-3.13;100.00
10638;BME280;47007;49.252;8.904;2023-02-08T00:39:10;101887.94;;;-3.16;100.00
10638;BME280;47007;49.252;8.904;2023-02-08T00:39:52;101888.81;;;-3.17;100.00
10638;BME280;47007;49.252;8.904;2023-02-08T00:40:34;101914.31;;;-3.02;100.00
10638;BME280;47007;49.252;8.904;2023-02-08T00:41:16;101870.91;;;-3.25;100.00
10638;BME280;47007;49.252;8.904;2023-02-08T00:42:00;101885.53;;;-3.22;100.00
10638;BME280;47007;49.252;8.904;2023-02-08T00:42:41;101910.91;;;-3.04;100.00
10638;BME280;47007;49.252;8.904;2023-02-08T00:43:24;101876.13;;;-3.27;100.00
10638;BME280;47007;49.252;8.904;2023-02-08T00:44:05;101875.31;;;-3.29;100.00
10638;BME280;47007;49.252;8.904;2023-02-08T00:44:49;101911.88;;;-3.08;100.00
10638;BME280;47007;49.252;8.904;2023-02-08T00:45:31;101892.25;;;-3.17;100.00
10638;BME280;47007;49.252;8.904;2023-02-08T00:46:13;101912.81;;;-3.09;100.00
10638;BME280;47007;49.252;8.904;2023-02-08T00:46:55;101906.03;;;-3.15;100.00
10638;BME280;47007;49.252;8.904;2023-02-08T00:47:36;101914.59;;;-3.11;100.00
10638;BME280;47007;49.252;8.904;2023-02-08T00:48:18;101915.47;;;-3.12;100.00
10638;BME280;47007;49.252;8.904;2023-02-08T00:49:00;101893.34;;;-3.24;100.00
10638;BME280;47007;49.252;8.904;2023-02-08T00:49:41;101898.59;;;-3.26;100.00
10638;BME280;47007;49.252;8.904;2023-02-08T00:50:23;101894.28;;;-3.27;100.00
10638;BME280;47007;49.252;8.904;2023-02-08T00:51:09;101914.63;;;-3.13;100.00
10638;BME280;47007;49.252;8.904;2023-02-08T00:51:52;101892.31;;;-3.18;100.00
10638;BME280;47007;49.252;8.904;2023-02-08T00:52:33;101916.13;;;-3.06;100.00
10638;BME280;47007;49.252;8.904;2023-02-08T00:53:15;101916.09;;;-3.04;100.00
10638;BME280;47007;49.252;8.904;2023-02-08T00:53:57;101908.31;;;-3.04;100.00
10638;BME280;47007;49.252;8.904;2023-02-08T00:54:39;101902.19;;;-3.02;100.00
10638;BME280;47007;49.252;8.904;2023-02-08T00:55:22;101912.19;;;-2.90;100.00
10638;BME280;47007;49.252;8.904;2023-02-08T00:56:04;101908.56;;;-2.84;100.00
10638;BME280;47007;49.252;8.904;2023-02-08T00:56:46;101910.16;;;-2.80;100.00
10638;BME280;47007;49.252;8.904;2023-02-08T00:57:30;101910.09;;;-2.77;100.00
10638;BME280;47007;49.252;8.904;2023-02-08T00:58:12;101881.16;;;-2.93;100.00
10638;BME280;47007;49.252;8.904;2023-02-08T00:58:54;101909.16;;;-2.74;100.00
10638;BME280;47007;49.252;8.904;2023-02-08T00:59:36;101907.41;;;-2.74;100.00
10638;BME280;47007;49.252;8.904;2023-02-08T01:00:17;101904.75;;;-2.72;100.00
10638;BME280;47007;49.252;8.904;2023-02-08T01:01:00;101903.91;;;-2.73;100.00
10638;BME280;47007;49.252;8.904;2023-02-08T01:01:44;101896.28;;;-2.79;100.00
10638;BME280;47007;49.252;8.904;2023-02-08T01:02:26;101866.47;;;-2.94;100.00
10638;BME280;47007;49.252;8.904;2023-02-08T01:03:08;101898.91;;;-2.79;100.00
10638;BME280;47007;49.252;8.904;2023-02-08T01:03:50;101902.34;;;-2.78;100.00
10638;BME280;47007;49.252;8.904;2023-02-08T01:04:32;101898.09;;;-2.81;100.00
10638;BME280;47007;49.252;8.904;2023-02-08T01:05:14;101907.63;;;-2.81;100.00
10638;BME280;47007;49.252;8.904;2023-02-08T01:06:00;101879.63;;;-2.98;100.00
10638;BME280;47007;49.252;8.904;2023-02-08T01:06:42;101896.50;;;-2.85;100.00
10638;BME280;47007;49.252;8.904;2023-02-08T01:07:25;101912.06;;;-2.85;100.00
10638;BME280;47007;49.252;8.904;2023-02-08T01:08:07;101883.94;;;-2.99;100.00
10638;BME280;47007;49.252;8.904;2023-02-08T01:08:48;101873.75;;;-3.05;100.00
10638;BME280;47007;49.252;8.904;2023-02-08T01:09:31;101878.84;;;-3.02;100.00
10638;BME280;47007;49.252;8.904;2023-02-08T01:10:12;101890.00;;;-2.98;100.00
10638;BME280;47007;49.252;8.904;2023-02-08T01:11:05;101890.97;;;-3.02;100.00
10638;BME280;47007;49.252;8.904;2023-02-08T01:11:47;101886.63;;;-3.02;100.00
10638;BME280;47007;49.252;8.904;2023-02-08T01:12:29;101874.84;;;-3.12;100.00
10638;BME280;47007;49.252;8.904;2023-02-08T01:13:11;101898.41;;;-2.92;100.00
10638;BME280;47007;49.252;8.904;2023-02-08T01:13:54;101892.41;;;-2.94;100.00
10638;BME280;47007;49.252;8.904;2023-02-08T01:14:38;101877.88;;;-2.98;100.00
10638;BME280;47007;49.252;8.904;2023-02-08T01:15:20;101894.00;;;-2.88;100.00
10638;BME280;47007;49.252;8.904;2023-02-08T01:16:16;101901.44;;;-2.77;100.00
10638;BME280;47007;49.252;8.904;2023-02-08T01:16:58;101904.75;;;-2.72;100.00
10638;BME280;47007;49.252;8.904;2023-02-08T01:17:40;101874.00;;;-2.84;100.00
10638;BME280;47007;49.252;8.904;2023-02-08T01:18:22;101901.09;;;-2.67;100.00
10638;BME280;47007;49.252;8.904;2023-02-08T01:19:04;101890.00;;;-2.72;100.00
10638;BME280;47007;49.252;8.904;2023-02-08T01:19:49;101901.81;;;-2.62;100.00
10638;BME280;47007;49.252;8.904;2023-02-08T01:20:34;101902.50;;;-2.57;100.00
10638;BME280;47007;49.252;8.904;2023-02-08T01:21:20;101893.03;;;-2.58;100.00
10638;BME280;47007;49.252;8.904;2023-02-08T01:22:02;101897.94;;;-2.48;100.00
10638;BME280;47007;49.252;8.904;2023-02-08T01:22:44;101907.97;;;-2.38;100.00
10638;BME280;47007;49.252;8.904;2023-02-08T01:23:25;101856.84;;;-2.62;100.00
10638;BME280;47007;49.252;8.904;2023-02-08T01:24:08;101901.63;;;-2.29;100.00
10638;BME280;47007;49.252;8.904;2023-02-08T01:24:50;101904.13;;;-2.26;100.00
10638;BME280;47007;49.252;8.904;2023-02-08T01:25:31;101901.31;;;-2.20;100.00
10638;BME280;47007;49.252;8.904;2023-02-08T01:26:14;101898.63;;;-2.17;100.00
10638;BME280;47007;49.252;8.904;2023-02-08T01:26:59;101887.53;;;-2.22;100.00
10638;BME280;47007;49.252;8.904;2023-02-08T01:27:40;101874.63;;;-2.24;100.00
10638;BME280;47007;49.252;8.904;2023-02-08T01:28:22;101909.41;;;-2.03;100.00
10638;BME280;47007;49.252;8.904;2023-02-08T01:29:04;101898.09;;;-2.02;100.00
10638;BME280;47007;49.252;8.904;2023-02-08T01:29:46;101888.75;;;-2.07;100.00
10638;BME280;47007;49.252;8.904;2023-02-08T01:30:27;101899.91;;;-2.04;100.00
10638;BME280;47007;49.252;8.904;2023-02-08T01:31:12;101901.66;;;-2.04;100.00
10638;BME280;47007;49.252;8.904;2023-02-08T01:31:54;101900.03;;;-2.08;100.00
10638;BME280;47007;49.252;8.904;2023-02-08T01:32:36;101898.44;;;-2.11;100.00
10638;BME280;47007;49.252;8.904;2023-02-08T01:33:18;101900.31;;;-2.16;100.00
10638;BME280;47007;49.252;8.904;2023-02-08T01:34:00;101897.91;;;-2.22;100.00
10638;BME280;47007;49.252;8.904;2023-02-08T01:34:42;101864.09;;;-2.47;100.00
10638;BME280;47007;49.252;8.904;2023-02-08T01:35:24;101883.00;;;-2.42;100.00
10638;BME280;47007;49.252;8.904;2023-02-08T01:36:07;101884.06;;;-2.47;100.00
10638;BME280;47007;49.252;8.904;2023-02-08T01:36:49;101895.97;;;-2.42;100.00
10638;BME280;47007;49.252;8.904;2023-02-08T01:37:31;101890.03;;;-2.45;100.00
10638;BME280;47007;49.252;8.904;2023-02-08T01:38:12;101891.91;;;-2.49;100.00
10638;BME280;47007;49.252;8.904;2023-02-08T01:38:54;101894.63;;;-2.54;100.00
10638;BME280;47007;49.252;8.904;2023-02-08T01:39:38;101861.38;;;-2.69;100.00
10638;BME280;47007;49.252;8.904;2023-02-08T01:40:20;101885.94;;;-2.53;100.00
10638;BME280;47007;49.252;8.904;2023-02-08T01:41:02;101862.97;;;-2.65;100.00
10638;BME280;47007;49.252;8.904;2023-02-08T01:41:45;101884.19;;;-2.52;100.00
10638;BME280;47007;49.252;8.904;2023-02-08T01:42:28;101891.22;;;-2.56;100.00
10638;BME280;47007;49.252;8.904;2023-02-08T01:43:25;101880.03;;;-2.58;100.00
10638;BME280;47007;49.252;8.904;2023-02-08T01:45:56;101871.53;;;-2.61;100.00
10638;BME280;47007;49.252;8.904;2023-02-08T01:46:43;101883.59;;;-2.60;100.00
10638;BME280;47007;49.252;8.904;2023-02-08T01:47:25;101863.16;;;-2.71;100.00
10638;BME280;47007;49.252;8.904;2023-02-08T01:48:11;101881.94;;;-2.63;100.00
10638;BME280;47007;49.252;8.904;2023-02-08T01:48:57;101878.56;;;-2.65;100.00
10638;BME280;47007;49.252;8.904;2023-02-08T01:49:39;101876.03;;;-2.68;100.00
10638;BME280;47007;49.252;8.904;2023-02-08T01:50:24;101870.09;;;-2.71;100.00
10638;BME280;47007;49.252;8.904;2023-02-08T01:51:14;101850.69;;;-2.86;100.00
10638;BME280;47007;49.252;8.904;2023-02-08T01:52:05;101864.19;;;-2.75;100.00
10638;BME280;47007;49.252;8.904;2023-02-08T01:52:49;101832.16;;;-3.02;100.00
10638;BME280;47007;49.252;8.904;2023-02-08T01:53:32;101859.31;;;-2.85;100.00
10638;BME280;47007;49.252;8.904;2023-02-08T01:54:17;101847.38;;;-2.91;100.00
10638;BME280;47007;49.252;8.904;2023-02-08T01:55:05;101811.81;;;-3.15;100.00
10638;BME280;47007;49.252;8.904;2023-02-08T01:55:51;101849.34;;;-2.98;100.00
10638;BME280;47007;49.252;8.904;2023-02-08T01:56:36;101860.25;;;-2.88;100.00
10638;BME280;47007;49.252;8.904;2023-02-08T01:57:20;101868.84;;;-2.86;100.00
10638;BME280;47007;49.252;8.904;2023-02-08T01:58:04;101864.44;;;-2.84;100.00
10638;BME280;47007;49.252;8.904;2023-02-08T01:58:52;101843.34;;;-3.00;100.00
10638;BME280;47007;49.252;8.904;2023-02-08T02:00:02;101864.56;;;-2.87;100.00
10638;BME280;47007;49.252;8.904;2023-02-08T02:00:54;101862.19;;;-2.95;100.00
10638;BME280;47007;49.252;8.904;2023-02-08T02:01:37;101843.50;;;-3.06;100.00
10638;BME280;47007;49.252;8.904;2023-02-08T02:02:21;101859.00;;;-3.03;100.00
10638;BME280;47007;49.252;8.904;2023-02-08T02:03:03;101873.53;;;-2.97;100.00
10638;BME280;47007;49.252;8.904;2023-02-08T02:03:46;101858.34;;;-3.09;100.00
10638;BME280;47007;49.252;8.904;2023-02-08T02:04:29;101871.88;;;-3.00;100.00
10638;BME280;47007;49.252;8.904;2023-02-08T02:05:11;101853.94;;;-3.07;100.00
10638;BME280;47007;49.252;8.904;2023-02-08T02:06:07;101861.66;;;-3.06;100.00
10638;BME280;47007;49.252;8.904;2023-02-08T02:06:56;101860.13;;;-3.11;100.00
10638;BME280;47007;49.252;8.904;2023-02-08T02:07:39;101872.09;;;-3.07;100.00
10638;BME280;47007;49.252;8.904;2023-02-08T02:08:21;101869.59;;;-3.10;100.00
10638;BME280;47007;49.252;8.904;2023-02-08T02:09:13;101863.66;;;-3.14;100.00
10638;BME280;47007;49.252;8.904;2023-02-08T02:09:59;101863.69;;;-3.15;100.00
10638;BME280;47007;49.252;8.904;2023-02-08T02:10:42;101834.06;;;-3.36;100.00
10638;BME280;47007;49.252;8.904;2023-02-08T02:11:24;101863.81;;;-3.20;100.00
10638;BME280;47007;49.252;8.904;2023-02-08T02:12:08;101857.03;;;-3.24;100.00
10638;BME280;47007;49.252;8.904;2023-02-08T02:12:50;101864.91;;;-3.27;100.00
10638;BME280;47007;49.252;8.904;2023-02-08T02:13:33;101862.41;;;-3.30;100.00
10638;BME280;47007;49.252;8.904;2023-02-08T02:14:17;101854.06;;;-3.40;100.00
10638;BME280;47007;49.252;8.904;2023-02-08T02:15:00;101851.47;;;-3.40;100.00
10638;BME280;47007;49.252;8.904;2023-02-08T02:15:44;101861.75;;;-3.37;100.00
10638;BME280;47007;49.252;8.904;2023-02-08T02:16:26;101849.84;;;-3.44;100.00
10638;BME280;47007;49.252;8.904;2023-02-08T02:17:10;101854.91;;;-3.39;100.00
10638;BME280;47007;49.252;8.904;2023-02-08T02:17:55;101854.09;;;-3.41;100.00
10638;BME280;47007;49.252;8.904;2023-02-08T02:18:37;101855.03;;;-3.44;100.00
10638;BME280;47007;49.252;8.904;2023-02-08T02:19:36;101855.88;;;-3.43;100.00
10638;BME280;47007;49.252;8.904;2023-02-08T02:20:33;101814.19;;;-3.65;100.00
10638;BME280;47007;49.252;8.904;2023-02-08T02:31:58;101841.91;;;-3.38;100.00
10638;BME280;47007;49.252;8.904;2023-02-08T02:34:25;101837.00;;;-3.47;100.00
10638;BME280;47007;49.252;8.904;2023-02-08T02:35:45;101841.97;;;-3.41;100.00
10638;BME280;47007;49.252;8.904;2023-02-08T02:36:50;101838.50;;;-3.40;100.00
10638;BME280;47007;49.252;8.904;2023-02-08T02:37:46;101843.63;;;-3.38;100.00
10638;BME280;47007;49.252;8.904;2023-02-08T02:38:40;101841.91;;;-3.38;100.00
10638;BME280;47007;49.252;8.904;2023-02-08T02:39:36;101837.56;;;-3.37;100.00
10638;BME280;47007;49.252;8.904;2023-02-08T02:40:34;101822.94;;;-3.40;100.00
10638;BME280;47007;49.252;8.904;2023-02-08T02:41:39;101836.44;;;-3.29;100.00
10638;BME280;47007;49.252;8.904;2023-02-08T02:42:51;101832.88;;;-3.24;100.00
10638;BME280;47007;49.252;8.904;2023-02-08T02:44:13;101801.31;;;-3.39;100.00
10638;BME280;47007;49.252;8.904;2023-02-08T02:45:05;101827.47;;;-3.18;100.00
10638;BME280;47007;49.252;8.904;2023-02-08T02:45:56;101830.78;;;-3.13;100.00
10638;BME280;47007;49.252;8.904;2023-02-08T02:46:45;101814.53;;;-3.20;100.00
10638;BME280;47007;49.252;8.904;2023-02-08T02:47:41;101829.66;;;-3.05;100.00
10638;BME280;47007;49.252;8.904;2023-02-08T02:49:24;101810.56;;;-3.02;100.00
10638;BME280;47007;49.252;8.904;2023-02-08T02:51:11;101833.22;;;-2.81;100.00
10638;BME280;47007;49.252;8.904;2023-02-08T02:52:03;101815.94;;;-2.82;100.00
10638;BME280;47007;49.252;8.904;2023-02-08T02:54:03;101809.72;;;-2.76;100.00
10638;BME280;47007;49.252;8.904;2023-02-08T02:54:51;101821.41;;;-2.63;100.00
10638;BME280;47007;49.252;8.904;2023-02-08T02:55:37;101820.69;;;-2.68;100.00
10638;BME280;47007;49.252;8.904;2023-02-08T02:56:25;101790.66;;;-2.75;100.00
10638;BME280;47007;49.252;8.904;2023-02-08T02:57:10;101830.53;;;-2.51;100.00
10638;BME280;47007;49.252;8.904;2023-02-08T02:57:53;101824.59;;;-2.55;100.00
10638;BME280;47007;49.252;8.904;2023-02-08T02:58:39;101834.81;;;-2.50;100.00
10638;BME280;47007;49.252;8.904;2023-02-08T02:59:21;101824.50;;;-2.52;100.00
10638;BME280;47007;49.252;8.904;2023-02-08T03:00:08;101833.16;;;-2.53;100.00
10638;BME280;47007;49.252;8.904;2023-02-08T03:00:56;101834.03;;;-2.53;100.00
10638;BME280;47007;49.252;8.904;2023-02-08T03:01:39;101833.09;;;-2.50;100.00
10638;BME280;47007;49.252;8.904;2023-02-08T03:02:20;101829.59;;;-2.49;100.00
10638;BME280;47007;49.252;8.904;2023-02-08T03:03:02;101783.78;;;-2.76;100.00
10638;BME280;47007;49.252;8.904;2023-02-08T03:03:44;101829.59;;;-2.49;100.00
10638;BME280;47007;49.252;8.904;2023-02-08T03:05:13;101802.69;;;-2.73;100.00
10638;BME280;47007;49.252;8.904;2023-02-08T03:06:04;101835.28;;;-2.64;100.00
10638;BME280;47007;49.252;8.904;2023-02-08T03:10:55;101812.47;;;-3.09;100.00
10638;BME280;47007;49.252;8.904;2023-02-08T03:11:56;101830.31;;;-2.98;100.00
10638;BME280;47007;49.252;8.904;2023-02-08T03:15:13;101837.69;;;-3.12;100.00
10638;BME280;47007;49.252;8.904;2023-02-08T03:16:23;101837.84;;;-3.18;100.00
10638;BME280;47007;49.252;8.904;2023-02-08T03:17:33;101832.06;;;-3.27;100.00
10638;BME280;47007;49.252;8.904;2023-02-08T03:19:19;101833.03;;;-3.31;100.00
10638;BME280;47007;49.252;8.904;2023-02-08T03:20:13;101821.19;;;-3.39;100.00
10638;BME280;47007;49.252;8.904;2023-02-08T03:22:44;101832.34;;;-3.36;100.00
10638;BME280;47007;49.252;8.904;2023-02-08T03:23:39;101828.03;;;-3.37;100.00
10638;BME280;47007;49.252;8.904;2023-02-08T03:24:27;101831.53;;;-3.38;100.00
10638;BME280;47007;49.252;8.904;2023-02-08T03:25:19;101835.00;;;-3.39;100.00
10638;BME280;47007;49.252;8.904;2023-02-08T03:26:10;101824.66;;;-3.39;100.00
10638;BME280;47007;49.252;8.904;2023-02-08T03:28:04;101825.25;;;-3.31;100.00
10638;BME280;47007;49.252;8.904;2023-02-08T03:29:26;101827.84;;;-3.31;100.00
10638;BME280;47007;49.252;8.904;2023-02-08T03:30:15;101786.13;;;-3.51;100.00
10638;BME280;47007;49.252;8.904;2023-02-08T03:31:07;101824.28;;;-3.27;100.00
10638;BME280;47007;49.252;8.904;2023-02-08T03:32:03;101827.75;;;-3.28;100.00
10638;BME280;47007;49.252;8.904;2023-02-08T03:33:02;101829.41;;;-3.25;100.00
10638;BME280;47007;49.252;8.904;2023-02-08T03:33:51;101830.25;;;-3.24;100.00
10638;BME280;47007;49.252;8.904;2023-02-08T03:34:37;101831.97;;;-3.23;100.00
10638;BME280;47007;49.252;8.904;2023-02-08T03:35:33;101826.06;;;-3.29;100.00
10638;BME280;47007;49.252;8.904;2023-02-08T03:37:36;101838.66;;;-3.16;100.00
10638;BME280;47007;49.252;8.904;2023-02-08T03:38:31;101808.72;;;-3.27;100.00
10638;BME280;47007;49.252;8.904;2023-02-08T03:39:21;101818.00;;;-3.19;100.00
10638;BME280;47007;49.252;8.904;2023-02-08T03:40:44;101835.97;;;-3.13;100.00
10638;BME280;47007;49.252;8.904;2023-02-08T03:41:32;101816.44;;;-3.25;100.00
10638;BME280;47007;49.252;8.904;2023-02-08T03:42:19;101802.81;;;-3.32;100.00
10638;BME280;47007;49.252;8.904;2023-02-08T03:43:10;101831.75;;;-3.17;100.00
10638;BME280;47007;49.252;8.904;2023-02-08T03:43:58;101786.81;;;-3.46;100.00
10638;BME280;47007;49.252;8.904;2023-02-08T03:44:44;101837.75;;;-3.15;100.00
10638;BME280;47007;49.252;8.904;2023-02-08T03:45:41;101835.28;;;-3.20;100.00
10638;BME280;47007;49.252;8.904;2023-02-08T03:46:31;101841.16;;;-3.13;100.00
10638;BME280;47007;49.252;8.904;2023-02-08T03:47:19;101836.81;;;-3.13;100.00
10638;BME280;47007;49.252;8.904;2023-02-08T03:48:05;101800.34;;;-3.35;100.00
10638;BME280;47007;49.252;8.904;2023-02-08T03:48:53;101842.06;;;-3.14;100.00
10638;BME280;47007;49.252;8.904;2023-02-08T03:49:38;101821.84;;;-3.33;100.00
10638;BME280;47007;49.252;8.904;2023-02-08T03:50:20;101852.56;;;-3.19;100.00
10638;BME280;47007;49.252;8.904;2023-02-08T03:51:03;101839.63;;;-3.20;100.00
10638;BME280;47007;49.252;8.904;2023-02-08T03:51:46;101842.31;;;-3.22;100.00
10638;BME280;47007;49.252;8.904;2023-02-08T03:52:30;101825.22;;;-3.29;100.00
10638;BME280;47007;49.252;8.904;2023-02-08T03:53:15;101830.25;;;-3.24;100.00
10638;BME280;47007;49.252;8.904;2023-02-08T03:54:01;101825.34;;;-3.34;100.00
10638;BME280;47007;49.252;8.904;2023-02-08T03:55:11;101831.44;;;-3.35;100.00
10638;BME280;47007;49.252;8.904;2023-02-08T03:55:59;101837.38;;;-3.31;100.00
10638;BME280;47007;49.252;8.904;2023-02-08T03:56:47;101846.72;;;-3.26;100.00
10638;BME280;47007;49.252;8.904;2023-02-08T03:58:28;101846.63;;;-3.22;100.00
10638;BME280;47007;49.252;8.904;2023-02-08T03:59:17;101844.94;;;-3.23;100.00
10638;BME280;47007;49.252;8.904;2023-02-08T04:00:11;101852.75;;;-3.25;100.00
10638;BME280;47007;49.252;8.904;2023-02-08T04:00:58;101816.25;;;-3.47;100.00
10638;BME280;47007;49.252;8.904;2023-02-08T04:01:48;101835.81;;;-3.37;100.00
10638;BME280;47007;49.252;8.904;2023-02-08T04:02:37;101836.72;;;-3.38;100.00
10638;BME280;47007;49.252;8.904;2023-02-08T04:03:25;101814.72;;;-3.54;100.00
10638;BME280;47007;49.252;8.904;2023-02-08T04:04:09;101848.66;;;-3.34;100.00
10638;BME280;47007;49.252;8.904;2023-02-08T04:04:52;101843.47;;;-3.34;100.00
10638;BME280;47007;49.252;8.904;2023-02-08T04:05:35;101827.50;;;-3.48;100.00
10638;BME280;47007;49.252;8.904;2023-02-08T04:06:17;101845.31;;;-3.36;100.00
10638;BME280;47007;49.252;8.904;2023-02-08T04:06:59;101860.81;;;-3.34;100.00
10638;BME280;47007;49.252;8.904;2023-02-08T04:07:40;101839.34;;;-3.39;100.00
10638;BME280;47007;49.252;8.904;2023-02-08T04:08:24;101844.41;;;-3.35;100.00
10638;BME280;47007;49.252;8.904;2023-02-08T04:09:06;101841.16;;;-3.43;100.00
10638;BME280;47007;49.252;8.904;2023-02-08T04:09:48;101845.31;;;-3.36;100.00
10638;BME280;47007;49.252;8.904;2023-02-08T04:10:29;101838.28;;;-3.34;100.00
10638;BME280;47007;49.252;8.904;2023-02-08T04:11:11;101813.66;;;-3.47;100.00
10638;BME280;47007;49.252;8.904;2023-02-08T04:11:53;101808.56;;;-3.50;100.00
10638;BME280;47007;49.252;8.904;2023-02-08T04:12:35;101842.50;;;-3.30;100.00
10638;BME280;47007;49.252;8.904;2023-02-08T04:13:16;101845.88;;;-3.26;100.00
10638;BME280;47007;49.252;8.904;2023-02-08T04:13:58;101814.41;;;-3.43;100.00
10638;BME280;47007;49.252;8.904;2023-02-08T04:14:40;101844.81;;;-3.20;100.00
10638;BME280;47007;49.252;8.904;2023-02-08T04:15:22;101851.53;;;-3.13;100.00
10638;BME280;47007;49.252;8.904;2023-02-08T04:16:04;101845.59;;;-3.17;100.00
10638;BME280;47007;49.252;8.904;2023-02-08T04:16:46;101848.13;;;-3.15;100.00
10638;BME280;47007;49.252;8.904;2023-02-08T04:17:27;101830.34;;;-3.28;100.00
10638;BME280;47007;49.252;8.904;2023-02-08T04:18:09;101853.38;;;-3.17;100.00
10638;BME280;47007;49.252;8.904;2023-02-08T04:18:51;101848.22;;;-3.18;100.00
10638;BME280;47007;49.252;8.904;2023-02-08T04:19:32;101792.28;;;-3.55;100.00
10638;BME280;47007;49.252;8.904;2023-02-08T04:20:14;101839.03;;;-3.29;100.00
10638;BME280;47007;49.252;8.904;2023-02-08T04:20:56;101829.81;;;-3.39;100.00
10638;BME280;47007;49.252;8.904;2023-02-08T04:21:38;101842.47;;;-3.28;100.00
10638;BME280;47007;49.252;8.904;2023-02-08T04:22:19;101834.72;;;-3.30;100.00
10638;BME280;47007;49.252;8.904;2023-02-08T04:23:01;101835.81;;;-3.37;100.00
10638;BME280;47007;49.252;8.904;2023-02-08T04:23:42;101816.34;;;-3.50;100.00
10638;BME280;47007;49.252;8.904;2023-02-08T04:24:24;101840.00;;;-3.33;100.00
10638;BME280;47007;49.252;8.904;2023-02-08T04:25:06;101817.16;;;-3.48;100.00
10638;BME280;47007;49.252;8.904;2023-02-08T04:25:48;101834.06;;;-3.36;100.00